sensor_id;sensor_type;location;lat;lon;timestamp;temperature;humidity
53962;DHT22;39868;53.398;6.564;2023-05-07T00:02:18;15.00;79.30
53962;DHT22;39868;53.398;6.564;2023-05-07T00:04:46;14.90;79.20
53962;DHT22;39868;53.398;6.564;2023-05-07T00:07:13;14.90;79.20
53962;DHT22;39868;53.398;6.564;2023-05-07T00:09:40;14.90;79.30
53962;DHT22;39868;53.398;6.564;2023-05-07T00:12:07;14.90;79.30
53962;DHT22;39868;53.398;6.564;2023-05-07T00:14:35;14.90;79.30
53962;DHT22;39868;53.398;6.564;2023-05-07T00:17:02;14.80;79.30
53962;DHT22;39868;53.398;6.564;2023-05-07T00:19:29;14.80;79.30
53962;DHT22;39868;53.398;6.564;2023-05-07T00:21:56;14.80;79.30
53962;DHT22;39868;53.398;6.564;2023-05-07T00:24:24;14.80;79.30
53962;DHT22;39868;53.398;6.564;2023-05-07T00:26:51;14.80;79.30
53962;DHT22;39868;53.398;6.564;2023-05-07T00:29:19;14.80;79.40
53962;DHT22;39868;53.398;6.564;2023-05-07T00:31:48;14.80;79.40
53962;DHT22;39868;53.398;6.564;2023-05-07T00:34:15;14.70;79.40
53962;DHT22;39868;53.398;6.564;2023-05-07T00:36:43;14.70;79.50
53962;DHT22;39868;53.398;6.564;2023-05-07T00:39:10;14.70;79.50
53962;DHT22;39868;53.398;6.564;2023-05-07T00:41:37;14.70;79.60
53962;DHT22;39868;53.398;6.564;2023-05-07T00:44:04;14.70;79.60
53962;DHT22;39868;53.398;6.564;2023-05-07T00:46:32;14.60;79.60
53962;DHT22;39868;53.398;6.564;2023-05-07T00:49:00;14.60;79.60
53962;DHT22;39868;53.398;6.564;2023-05-07T00:51:28;14.60;79.70
53962;DHT22;39868;53.398;6.564;2023-05-07T00:53:56;14.60;79.80
53962;DHT22;39868;53.398;6.564;2023-05-07T00:56:23;14.60;79.80
53962;DHT22;39868;53.398;6.564;2023-05-07T00:58:51;14.60;79.90
53962;DHT22;39868;53.398;6.564;2023-05-07T01:01:19;14.60;79.90
53962;DHT22;39868;53.398;6.564;2023-05-07T01:03:47;14.60;79.90
53962;DHT22;39868;53.398;6.564;2023-05-07T01:06:15;14.60;80.00
53962;DHT22;39868;53.398;6.564;2023-05-07T01:08:45;14.60;80.00
53962;DHT22;39868;53.398;6.564;2023-05-07T01:11:13;14.60;80.10
53962;DHT22;39868;53.398;6.564;2023-05-07T01:13:41;14.60;80.10
53962;DHT22;39868;53.398;6.564;2023-05-07T01:16:09;14.60;80.20
53962;DHT22;39868;53.398;6.564;2023-05-07T01:18:37;14.60;80.20
53962;DHT22;39868;53.398;6.564;2023-05-07T01:21:05;14.60;80.20
53962;DHT22;39868;53.398;6.564;2023-05-07T01:23:33;14.60;80.20
53962;DHT22;39868;53.398;6.564;2023-05-07T01:26:02;14.60;80.20
53962;DHT22;39868;53.398;6.564;2023-05-07T01:28:32;14.60;80.30
53962;DHT22;39868;53.398;6.564;2023-05-07T01:31:04;14.60;80.30
53962;DHT22;39868;53.398;6.564;2023-05-07T01:33:35;14.60;80.40
53962;DHT22;39868;53.398;6.564;2023-05-07T01:36:03;14.60;80.40
53962;DHT22;39868;53.398;6.564;2023-05-07T01:38:34;14.60;80.40
53962;DHT22;39868;53.398;6.564;2023-05-07T01:41:03;14.60;80.50
53962;DHT22;39868;53.398;6.564;2023-05-07T01:43:30;14.60;80.50
53962;DHT22;39868;53.398;6.564;2023-05-07T01:45:58;14.60;80.50
53962;DHT22;39868;53.398;6.564;2023-05-07T01:48:27;14.60;80.50
53962;DHT22;39868;53.398;6.564;2023-05-07T01:50:55;14.60;80.50
53962;DHT22;39868;53.398;6.564;2023-05-07T01:53:22;14.60;80.60
53962;DHT22;39868;53.398;6.564;2023-05-07T01:55:49;14.60;80.60
53962;DHT22;39868;53.398;6.564;2023-05-07T01:58:17;14.60;80.70
53962;DHT22;39868;53.398;6.564;2023-05-07T02:00:44;14.60;80.70
53962;DHT22;39868;53.398;6.564;2023-05-07T02:03:12;14.60;80.60
53962;DHT22;39868;53.398;6.564;2023-05-07T02:05:47;14.60;80.70
53962;DHT22;39868;53.398;6.564;2023-05-07T02:08:29;14.60;80.70
53962;DHT22;39868;53.398;6.564;2023-05-07T02:10:58;14.60;80.70
53962;DHT22;39868;53.398;6.564;2023-05-07T02:13:30;14.50;80.80
53962;DHT22;39868;53.398;6.564;2023-05-07T02:15:57;14.50;80.80
53962;DHT22;39868;53.398;6.564;2023-05-07T02:18:26;14.50;80.80
53962;DHT22;39868;53.398;6.564;2023-05-07T02:20:54;14.50;80.80
53962;DHT22;39868;53.398;6.564;2023-05-07T02:23:21;14.50;80.80
53962;DHT22;39868;53.398;6.564;2023-05-07T02:25:48;14.50;80.90
53962;DHT22;39868;53.398;6.564;2023-05-07T02:28:17;14.50;80.90
53962;DHT22;39868;53.398;6.564;2023-05-07T02:30:51;14.50;80.90
53962;DHT22;39868;53.398;6.564;2023-05-07T02:33:19;14.40;80.90
53962;DHT22;39868;53.398;6.564;2023-05-07T02:35:47;14.40;80.90
53962;DHT22;39868;53.398;6.564;2023-05-07T02:38:15;14.40;81.00
53962;DHT22;39868;53.398;6.564;2023-05-07T02:40:43;14.40;81.00
53962;DHT22;39868;53.398;6.564;2023-05-07T02:43:10;14.40;81.10
53962;DHT22;39868;53.398;6.564;2023-05-07T02:45:40;14.40;81.10
53962;DHT22;39868;53.398;6.564;2023-05-07T02:48:08;14.30;81.10
53962;DHT22;39868;53.398;6.564;2023-05-07T02:50:35;14.40;81.20
53962;DHT22;39868;53.398;6.564;2023-05-07T02:53:02;14.30;81.20
53962;DHT22;39868;53.398;6.564;2023-05-07T02:55:30;14.30;81.20
53962;DHT22;39868;53.398;6.564;2023-05-07T02:57:58;14.30;81.30
53962;DHT22;39868;53.398;6.564;2023-05-07T03:00:25;14.30;81.30
53962;DHT22;39868;53.398;6.564;2023-05-07T03:03:16;14.30;81.30
53962;DHT22;39868;53.398;6.564;2023-05-07T03:05:44;14.30;81.30
53962;DHT22;39868;53.398;6.564;2023-05-07T03:08:11;14.30;81.40
53962;DHT22;39868;53.398;6.564;2023-05-07T03:10:38;14.30;81.40
53962;DHT22;39868;53.398;6.564;2023-05-07T03:13:06;14.30;81.40
53962;DHT22;39868;53.398;6.564;2023-05-07T03:15:33;14.30;81.40
53962;DHT22;39868;53.398;6.564;2023-05-07T03:18:00;14.30;81.50
53962;DHT22;39868;53.398;6.564;2023-05-07T03:20:28;14.30;81.50
53962;DHT22;39868;53.398;6.564;2023-05-07T03:22:55;14.30;81.50
53962;DHT22;39868;53.398;6.564;2023-05-07T03:25:22;14.30;81.50
53962;DHT22;39868;53.398;6.564;2023-05-07T03:27:50;14.30;81.50
53962;DHT22;39868;53.398;6.564;2023-05-07T03:30:20;14.30;81.50
53962;DHT22;39868;53.398;6.564;2023-05-07T03:32:48;14.30;81.60
53962;DHT22;39868;53.398;6.564;2023-05-07T03:35:15;14.30;81.60
53962;DHT22;39868;53.398;6.564;2023-05-07T03:37:42;14.20;81.50
53962;DHT22;39868;53.398;6.564;2023-05-07T03:40:11;14.30;81.60
53962;DHT22;39868;53.398;6.564;2023-05-07T03:42:52;14.20;81.50
53962;DHT22;39868;53.398;6.564;2023-05-07T03:45:23;14.20;81.50
53962;DHT22;39868;53.398;6.564;2023-05-07T03:47:58;14.20;81.60
53962;DHT22;39868;53.398;6.564;2023-05-07T03:50:26;14.20;81.60
53962;DHT22;39868;53.398;6.564;2023-05-07T03:52:54;14.20;81.60
53962;DHT22;39868;53.398;6.564;2023-05-07T03:55:22;14.20;81.60
53962;DHT22;39868;53.398;6.564;2023-05-07T03:57:55;14.20;81.60
53962;DHT22;39868;53.398;6.564;2023-05-07T04:00:27;14.20;81.60
53962;DHT22;39868;53.398;6.564;2023-05-07T04:02:59;14.20;81.60
53962;DHT22;39868;53.398;6.564;2023-05-07T04:05:30;14.20;81.60
53962;DHT22;39868;53.398;6.564;2023-05-07T04:08:01;14.10;81.60
53962;DHT22;39868;53.398;6.564;2023-05-07T04:10:36;14.10;81.60
53962;DHT22;39868;53.398;6.564;2023-05-07T04:13:07;14.10;81.60
53962;DHT22;39868;53.398;6.564;2023-05-07T04:15:36;14.10;81.70
53962;DHT22;39868;53.398;6.564;2023-05-07T04:18:06;14.10;81.70
53962;DHT22;39868;53.398;6.564;2023-05-07T04:20:34;14.10;81.70
53962;DHT22;39868;53.398;6.564;2023-05-07T04:23:06;14.10;81.70
53962;DHT22;39868;53.398;6.564;2023-05-07T04:25:34;14.10;81.70
53962;DHT22;39868;53.398;6.564;2023-05-07T04:28:08;14.10;81.70
53962;DHT22;39868;53.398;6.564;2023-05-07T04:30:36;14.10;81.70
53962;DHT22;39868;53.398;6.564;2023-05-07T04:33:06;14.10;81.70
53962;DHT22;39868;53.398;6.564;2023-05-07T04:35:35;14.10;81.60
53962;DHT22;39868;53.398;6.564;2023-05-07T04:38:04;14.00;81.60
53962;DHT22;39868;53.398;6.564;2023-05-07T04:40:31;14.00;81.60
53962;DHT22;39868;53.398;6.564;2023-05-07T04:43:00;14.00;81.60
53962;DHT22;39868;53.398;6.564;2023-05-07T04:45:31;14.00;81.70
53962;DHT22;39868;53.398;6.564;2023-05-07T04:47:59;14.00;81.70
53962;DHT22;39868;53.398;6.564;2023-05-07T04:50:26;14.00;81.70
53962;DHT22;39868;53.398;6.564;2023-05-07T04:52:58;13.90;81.70
53962;DHT22;39868;53.398;6.564;2023-05-07T04:55:25;13.90;81.70
53962;DHT22;39868;53.398;6.564;2023-05-07T04:57:53;13.90;81.70
53962;DHT22;39868;53.398;6.564;2023-05-07T05:00:20;13.90;81.70
53962;DHT22;39868;53.398;6.564;2023-05-07T05:02:49;13.90;81.80
53962;DHT22;39868;53.398;6.564;2023-05-07T05:05:19;13.90;81.70
53962;DHT22;39868;53.398;6.564;2023-05-07T05:07:50;13.90;82.30
53962;DHT22;39868;53.398;6.564;2023-05-07T05:10:19;13.90;81.80
53962;DHT22;39868;53.398;6.564;2023-05-07T05:12:49;13.80;81.70
53962;DHT22;39868;53.398;6.564;2023-05-07T05:15:17;13.80;81.80
53962;DHT22;39868;53.398;6.564;2023-05-07T05:17:45;13.80;81.80
53962;DHT22;39868;53.398;6.564;2023-05-07T05:20:12;13.80;81.80
53962;DHT22;39868;53.398;6.564;2023-05-07T05:22:41;13.80;81.90
53962;DHT22;39868;53.398;6.564;2023-05-07T05:25:09;13.80;81.90
53962;DHT22;39868;53.398;6.564;2023-05-07T05:27:37;13.80;81.90
53962;DHT22;39868;53.398;6.564;2023-05-07T05:30:05;13.80;81.80
53962;DHT22;39868;53.398;6.564;2023-05-07T05:32:34;13.80;81.90
53962;DHT22;39868;53.398;6.564;2023-05-07T05:35:01;13.80;81.90
53962;DHT22;39868;53.398;6.564;2023-05-07T05:37:29;13.80;81.90
53962;DHT22;39868;53.398;6.564;2023-05-07T05:40:00;13.80;81.90
53962;DHT22;39868;53.398;6.564;2023-05-07T05:42:29;13.80;81.90
53962;DHT22;39868;53.398;6.564;2023-05-07T05:44:56;13.80;82.00
53962;DHT22;39868;53.398;6.564;2023-05-07T05:47:25;13.70;82.00
53962;DHT22;39868;53.398;6.564;2023-05-07T05:49:54;13.70;81.90
53962;DHT22;39868;53.398;6.564;2023-05-07T05:52:22;13.70;82.00
53962;DHT22;39868;53.398;6.564;2023-05-07T05:54:51;13.70;82.00
53962;DHT22;39868;53.398;6.564;2023-05-07T05:57:19;13.80;82.10
53962;DHT22;39868;53.398;6.564;2023-05-07T05:59:46;13.80;82.20
53962;DHT22;39868;53.398;6.564;2023-05-07T06:02:14;13.70;82.10
53962;DHT22;39868;53.398;6.564;2023-05-07T06:04:42;13.80;82.20
53962;DHT22;39868;53.398;6.564;2023-05-07T06:07:13;13.70;82.20
53962;DHT22;39868;53.398;6.564;2023-05-07T06:09:41;13.70;82.20
53962;DHT22;39868;53.398;6.564;2023-05-07T06:12:08;13.70;82.20
53962;DHT22;39868;53.398;6.564;2023-05-07T06:14:35;13.80;82.40
53962;DHT22;39868;53.398;6.564;2023-05-07T06:17:03;13.70;82.30
53962;DHT22;39868;53.398;6.564;2023-05-07T06:19:30;13.80;82.40
53962;DHT22;39868;53.398;6.564;2023-05-07T06:21:58;13.80;82.40
53962;DHT22;39868;53.398;6.564;2023-05-07T06:24:29;13.80;82.40
53962;DHT22;39868;53.398;6.564;2023-05-07T06:26:56;13.70;82.40
53962;DHT22;39868;53.398;6.564;2023-05-07T06:29:26;13.80;82.50
53962;DHT22;39868;53.398;6.564;2023-05-07T06:31:54;13.80;82.50
53962;DHT22;39868;53.398;6.564;2023-05-07T06:34:22;13.80;82.50
53962;DHT22;39868;53.398;6.564;2023-05-07T06:36:50;13.80;82.50
53962;DHT22;39868;53.398;6.564;2023-05-07T06:39:37;13.70;82.30
53962;DHT22;39868;53.398;6.564;2023-05-07T06:42:04;13.80;82.30
53962;DHT22;39868;53.398;6.564;2023-05-07T06:44:32;13.70;82.30
53962;DHT22;39868;53.398;6.564;2023-05-07T06:47:12;13.80;82.30
53962;DHT22;39868;53.398;6.564;2023-05-07T06:49:44;13.80;82.30
53962;DHT22;39868;53.398;6.564;2023-05-07T06:52:15;13.80;82.30
53962;DHT22;39868;53.398;6.564;2023-05-07T06:54:42;13.80;82.40
53962;DHT22;39868;53.398;6.564;2023-05-07T06:57:11;13.80;82.30
53962;DHT22;39868;53.398;6.564;2023-05-07T06:59:38;13.80;82.30
53962;DHT22;39868;53.398;6.564;2023-05-07T07:02:06;13.80;82.40
53962;DHT22;39868;53.398;6.564;2023-05-07T07:04:33;13.90;82.40
53962;DHT22;39868;53.398;6.564;2023-05-07T07:07:05;13.90;82.40
53962;DHT22;39868;53.398;6.564;2023-05-07T07:09:32;13.90;82.30
53962;DHT22;39868;53.398;6.564;2023-05-07T07:12:01;13.90;82.40
53962;DHT22;39868;53.398;6.564;2023-05-07T07:14:29;14.00;82.50
53962;DHT22;39868;53.398;6.564;2023-05-07T07:16:56;14.00;82.50
53962;DHT22;39868;53.398;6.564;2023-05-07T07:19:25;14.00;82.40
53962;DHT22;39868;53.398;6.564;2023-05-07T07:21:54;14.00;82.40
53962;DHT22;39868;53.398;6.564;2023-05-07T07:24:21;14.00;82.30
53962;DHT22;39868;53.398;6.564;2023-05-07T07:26:53;14.10;82.30
53962;DHT22;39868;53.398;6.564;2023-05-07T07:29:23;14.10;82.20
53962;DHT22;39868;53.398;6.564;2023-05-07T07:31:53;14.10;82.20
53962;DHT22;39868;53.398;6.564;2023-05-07T07:34:21;14.10;82.10
53962;DHT22;39868;53.398;6.564;2023-05-07T07:36:49;14.10;82.10
53962;DHT22;39868;53.398;6.564;2023-05-07T07:39:18;14.20;82.10
53962;DHT22;39868;53.398;6.564;2023-05-07T07:41:47;14.10;82.10
53962;DHT22;39868;53.398;6.564;2023-05-07T07:44:15;14.10;82.10
53962;DHT22;39868;53.398;6.564;2023-05-07T07:46:48;14.10;82.10
53962;DHT22;39868;53.398;6.564;2023-05-07T07:49:16;14.10;82.00
53962;DHT22;39868;53.398;6.564;2023-05-07T07:51:44;14.20;82.10
53962;DHT22;39868;53.398;6.564;2023-05-07T07:54:12;14.10;82.00
53962;DHT22;39868;53.398;6.564;2023-05-07T07:56:40;14.20;82.10
53962;DHT22;39868;53.398;6.564;2023-05-07T07:59:08;14.20;82.00
53962;DHT22;39868;53.398;6.564;2023-05-07T08:01:39;14.20;82.10
53962;DHT22;39868;53.398;6.564;2023-05-07T08:04:06;14.20;82.10
53962;DHT22;39868;53.398;6.564;2023-05-07T08:06:38;14.20;82.00
53962;DHT22;39868;53.398;6.564;2023-05-07T08:09:08;14.20;82.10
53962;DHT22;39868;53.398;6.564;2023-05-07T08:11:36;14.20;82.00
53962;DHT22;39868;53.398;6.564;2023-05-07T08:14:04;14.20;82.10
53962;DHT22;39868;53.398;6.564;2023-05-07T08:16:32;14.20;82.10
53962;DHT22;39868;53.398;6.564;2023-05-07T08:19:00;14.20;82.10
53962;DHT22;39868;53.398;6.564;2023-05-07T08:21:27;14.30;82.20
53962;DHT22;39868;53.398;6.564;2023-05-07T08:23:55;14.30;82.10
53962;DHT22;39868;53.398;6.564;2023-05-07T08:26:22;14.30;82.10
53962;DHT22;39868;53.398;6.564;2023-05-07T08:28:49;14.30;82.20
53962;DHT22;39868;53.398;6.564;2023-05-07T08:31:16;14.30;82.20
53962;DHT22;39868;53.398;6.564;2023-05-07T08:33:45;14.40;82.20
53962;DHT22;39868;53.398;6.564;2023-05-07T08:36:12;14.40;82.20
53962;DHT22;39868;53.398;6.564;2023-05-07T08:38:40;14.40;82.20
53962;DHT22;39868;53.398;6.564;2023-05-07T08:41:12;14.50;82.30
53962;DHT22;39868;53.398;6.564;2023-05-07T08:43:42;14.50;82.20
53962;DHT22;39868;53.398;6.564;2023-05-07T08:46:12;14.50;82.20
53962;DHT22;39868;53.398;6.564;2023-05-07T08:48:45;14.60;82.30
53962;DHT22;39868;53.398;6.564;2023-05-07T08:51:18;14.70;82.30
53962;DHT22;39868;53.398;6.564;2023-05-07T08:53:47;14.70;82.30
53962;DHT22;39868;53.398;6.564;2023-05-07T08:56:20;14.80;82.30
53962;DHT22;39868;53.398;6.564;2023-05-07T08:58:50;14.80;82.30
53962;DHT22;39868;53.398;6.564;2023-05-07T09:01:18;14.90;82.30
53962;DHT22;39868;53.398;6.564;2023-05-07T09:03:50;14.90;82.30
53962;DHT22;39868;53.398;6.564;2023-05-07T09:06:19;15.10;82.30
53962;DHT22;39868;53.398;6.564;2023-05-07T09:08:54;15.10;82.30
53962;DHT22;39868;53.398;6.564;2023-05-07T09:11:24;15.20;82.20
53962;DHT22;39868;53.398;6.564;2023-05-07T09:13:55;15.30;82.20
53962;DHT22;39868;53.398;6.564;2023-05-07T09:16:25;15.40;82.40
53962;DHT22;39868;53.398;6.564;2023-05-07T09:18:54;15.50;82.50
53962;DHT22;39868;53.398;6.564;2023-05-07T09:21:22;15.60;82.50
53962;DHT22;39868;53.398;6.564;2023-05-07T09:23:54;15.70;82.40
53962;DHT22;39868;53.398;6.564;2023-05-07T09:26:26;15.80;82.30
53962;DHT22;39868;53.398;6.564;2023-05-07T09:28:55;16.00;82.10
53962;DHT22;39868;53.398;6.564;2023-05-07T09:31:22;16.10;82.10
53962;DHT22;39868;53.398;6.564;2023-05-07T09:33:54;16.20;81.80
53962;DHT22;39868;53.398;6.564;2023-05-07T09:36:27;16.30;81.80
53962;DHT22;39868;53.398;6.564;2023-05-07T09:38:54;16.40;81.60
53962;DHT22;39868;53.398;6.564;2023-05-07T09:41:23;16.50;81.30
53962;DHT22;39868;53.398;6.564;2023-05-07T09:44:01;16.50;80.90
53962;DHT22;39868;53.398;6.564;2023-05-07T09:46:38;16.60;80.90
53962;DHT22;39868;53.398;6.564;2023-05-07T09:49:23;16.70;81.00
53962;DHT22;39868;53.398;6.564;2023-05-07T09:52:00;16.80;81.00
53962;DHT22;39868;53.398;6.564;2023-05-07T09:54:30;16.90;80.90
53962;DHT22;39868;53.398;6.564;2023-05-07T09:56:58;17.00;80.80
53962;DHT22;39868;53.398;6.564;2023-05-07T09:59:31;17.10;80.60
53962;DHT22;39868;53.398;6.564;2023-05-07T10:02:01;17.20;80.30
53962;DHT22;39868;53.398;6.564;2023-05-07T10:04:35;17.20;80.60
53962;DHT22;39868;53.398;6.564;2023-05-07T10:07:03;17.30;80.20
53962;DHT22;39868;53.398;6.564;2023-05-07T10:09:37;17.40;80.40
53962;DHT22;39868;53.398;6.564;2023-05-07T10:12:25;17.40;79.40
53962;DHT22;39868;53.398;6.564;2023-05-07T10:14:57;17.50;79.40
53962;DHT22;39868;53.398;6.564;2023-05-07T10:17:28;17.60;79.40
53962;DHT22;39868;53.398;6.564;2023-05-07T10:20:01;17.70;79.50
53962;DHT22;39868;53.398;6.564;2023-05-07T10:22:46;17.70;79.20
53962;DHT22;39868;53.398;6.564;2023-05-07T10:25:28;17.80;79.00
53962;DHT22;39868;53.398;6.564;2023-05-07T10:28:02;17.90;78.60
53962;DHT22;39868;53.398;6.564;2023-05-07T10:33:13;18.00;78.10
53962;DHT22;39868;53.398;6.564;2023-05-07T10:35:45;18.00;78.30
53962;DHT22;39868;53.398;6.564;2023-05-07T10:38:15;18.10;78.30
53962;DHT22;39868;53.398;6.564;2023-05-07T10:40:44;18.10;78.40
53962;DHT22;39868;53.398;6.564;2023-05-07T10:43:16;18.20;78.30
53962;DHT22;39868;53.398;6.564;2023-05-07T10:46:14;18.20;78.40
53962;DHT22;39868;53.398;6.564;2023-05-07T10:52:21;18.40;78.20
53962;DHT22;39868;53.398;6.564;2023-05-07T10:55:25;18.40;78.00
53962;DHT22;39868;53.398;6.564;2023-05-07T10:58:26;18.50;78.10
53962;DHT22;39868;53.398;6.564;2023-05-07T11:01:48;18.50;77.60
53962;DHT22;39868;53.398;6.564;2023-05-07T11:04:26;18.50;77.50
53962;DHT22;39868;53.398;6.564;2023-05-07T11:07:24;18.60;77.20
53962;DHT22;39868;53.398;6.564;2023-05-07T11:10:07;18.60;77.10
53962;DHT22;39868;53.398;6.564;2023-05-07T11:13:07;18.60;77.10
53962;DHT22;39868;53.398;6.564;2023-05-07T11:15:49;18.60;76.90
53962;DHT22;39868;53.398;6.564;2023-05-07T11:18:52;18.70;76.80
53962;DHT22;39868;53.398;6.564;2023-05-07T11:21:39;18.70;76.70
53962;DHT22;39868;53.398;6.564;2023-05-07T11:24:27;18.70;76.80
53962;DHT22;39868;53.398;6.564;2023-05-07T11:27:04;18.70;76.50
53962;DHT22;39868;53.398;6.564;2023-05-07T11:29:37;18.80;76.80
53962;DHT22;39868;53.398;6.564;2023-05-07T11:32:12;18.80;76.60
53962;DHT22;39868;53.398;6.564;2023-05-07T11:34:56;18.90;76.70
53962;DHT22;39868;53.398;6.564;2023-05-07T11:37:41;18.90;76.60
53962;DHT22;39868;53.398;6.564;2023-05-07T11:40:13;19.00;76.40
53962;DHT22;39868;53.398;6.564;2023-05-07T11:42:51;19.00;76.80
53962;DHT22;39868;53.398;6.564;2023-05-07T11:45:25;19.10;77.30
53962;DHT22;39868;53.398;6.564;2023-05-07T11:47:58;19.20;76.90
53962;DHT22;39868;53.398;6.564;2023-05-07T11:50:32;19.30;77.40
53962;DHT22;39868;53.398;6.564;2023-05-07T11:53:08;19.40;77.10
53962;DHT22;39868;53.398;6.564;2023-05-07T11:55:43;19.50;77.60
53962;DHT22;39868;53.398;6.564;2023-05-07T11:58:23;19.60;76.80
53962;DHT22;39868;53.398;6.564;2023-05-07T12:00:54;19.70;77.00
53962;DHT22;39868;53.398;6.564;2023-05-07T12:03:24;19.80;76.90
53962;DHT22;39868;53.398;6.564;2023-05-07T12:06:05;19.90;77.00
53962;DHT22;39868;53.398;6.564;2023-05-07T12:08:41;20.00;76.60
53962;DHT22;39868;53.398;6.564;2023-05-07T12:11:22;20.20;76.80
53962;DHT22;39868;53.398;6.564;2023-05-07T12:13:55;20.30;76.80
53962;DHT22;39868;53.398;6.564;2023-05-07T12:16:26;20.40;76.70
53962;DHT22;39868;53.398;6.564;2023-05-07T12:18:55;20.50;76.80
53962;DHT22;39868;53.398;6.564;2023-05-07T12:21:31;20.70;75.80
53962;DHT22;39868;53.398;6.564;2023-05-07T12:24:01;20.80;75.70
53962;DHT22;39868;53.398;6.564;2023-05-07T12:26:29;20.90;75.50
53962;DHT22;39868;53.398;6.564;2023-05-07T12:29:00;21.00;75.80
53962;DHT22;39868;53.398;6.564;2023-05-07T12:31:27;21.00;75.40
53962;DHT22;39868;53.398;6.564;2023-05-07T12:33:59;21.10;75.30
53962;DHT22;39868;53.398;6.564;2023-05-07T12:36:37;21.10;75.20
53962;DHT22;39868;53.398;6.564;2023-05-07T12:39:07;21.20;75.00
53962;DHT22;39868;53.398;6.564;2023-05-07T12:41:57;21.30;74.30
53962;DHT22;39868;53.398;6.564;2023-05-07T12:44:32;21.40;74.60
53962;DHT22;39868;53.398;6.564;2023-05-07T12:47:11;21.40;74.90
53962;DHT22;39868;53.398;6.564;2023-05-07T12:49:43;21.50;74.70
53962;DHT22;39868;53.398;6.564;2023-05-07T12:52:15;21.50;74.30
53962;DHT22;39868;53.398;6.564;2023-05-07T12:54:44;21.60;73.30
53962;DHT22;39868;53.398;6.564;2023-05-07T12:57:12;21.70;73.10
53962;DHT22;39868;53.398;6.564;2023-05-07T12:59:43;21.70;73.10
53962;DHT22;39868;53.398;6.564;2023-05-07T13:02:13;21.80;73.60
53962;DHT22;39868;53.398;6.564;2023-05-07T13:04:44;21.90;74.20
53962;DHT22;39868;53.398;6.564;2023-05-07T13:07:12;22.00;74.30
53962;DHT22;39868;53.398;6.564;2023-05-07T13:09:43;22.10;73.50
53962;DHT22;39868;53.398;6.564;2023-05-07T13:12:17;22.30;74.20
53962;DHT22;39868;53.398;6.564;2023-05-07T13:14:46;22.40;73.90
53962;DHT22;39868;53.398;6.564;2023-05-07T13:17:16;22.50;73.70
53962;DHT22;39868;53.398;6.564;2023-05-07T13:19:46;22.70;72.90
53962;DHT22;39868;53.398;6.564;2023-05-07T13:22:16;22.80;72.90
53962;DHT22;39868;53.398;6.564;2023-05-07T13:24:46;22.90;72.70
53962;DHT22;39868;53.398;6.564;2023-05-07T13:27:15;23.10;73.60
53962;DHT22;39868;53.398;6.564;2023-05-07T13:29:45;23.20;72.40
53962;DHT22;39868;53.398;6.564;2023-05-07T13:32:13;23.40;71.90
53962;DHT22;39868;53.398;6.564;2023-05-07T13:34:43;23.50;72.60
53962;DHT22;39868;53.398;6.564;2023-05-07T13:37:16;23.60;71.70
53962;DHT22;39868;53.398;6.564;2023-05-07T13:39:54;23.70;72.00
53962;DHT22;39868;53.398;6.564;2023-05-07T13:42:22;23.80;71.60
53962;DHT22;39868;53.398;6.564;2023-05-07T13:44:51;23.90;71.60
53962;DHT22;39868;53.398;6.564;2023-05-07T13:47:29;24.00;70.70
53962;DHT22;39868;53.398;6.564;2023-05-07T13:49:58;24.00;69.60
53962;DHT22;39868;53.398;6.564;2023-05-07T13:52:29;24.00;69.30
53962;DHT22;39868;53.398;6.564;2023-05-07T13:55:04;24.00;69.90
53962;DHT22;39868;53.398;6.564;2023-05-07T13:57:32;24.00;70.00
53962;DHT22;39868;53.398;6.564;2023-05-07T14:00:06;24.00;69.20
53962;DHT22;39868;53.398;6.564;2023-05-07T14:02:45;24.00;68.90
53962;DHT22;39868;53.398;6.564;2023-05-07T14:05:17;24.10;68.80
53962;DHT22;39868;53.398;6.564;2023-05-07T14:07:50;24.10;68.60
53962;DHT22;39868;53.398;6.564;2023-05-07T14:10:20;24.20;67.90
53962;DHT22;39868;53.398;6.564;2023-05-07T14:12:49;24.20;67.90
53962;DHT22;39868;53.398;6.564;2023-05-07T14:15:18;24.20;68.80
53962;DHT22;39868;53.398;6.564;2023-05-07T14:17:49;24.20;69.10
53962;DHT22;39868;53.398;6.564;2023-05-07T14:20:17;24.30;67.80
53962;DHT22;39868;53.398;6.564;2023-05-07T14:22:48;24.40;68.40
53962;DHT22;39868;53.398;6.564;2023-05-07T14:25:23;24.40;68.50
53962;DHT22;39868;53.398;6.564;2023-05-07T14:27:51;24.50;69.10
53962;DHT22;39868;53.398;6.564;2023-05-07T14:30:24;24.60;68.00
53962;DHT22;39868;53.398;6.564;2023-05-07T14:32:54;24.70;68.10
53962;DHT22;39868;53.398;6.564;2023-05-07T14:35:22;24.70;66.90
53962;DHT22;39868;53.398;6.564;2023-05-07T14:37:55;24.80;67.90
53962;DHT22;39868;53.398;6.564;2023-05-07T14:40:27;24.80;66.80
53962;DHT22;39868;53.398;6.564;2023-05-07T14:43:00;24.90;67.60
53962;DHT22;39868;53.398;6.564;2023-05-07T14:45:28;24.90;68.50
53962;DHT22;39868;53.398;6.564;2023-05-07T14:48:01;25.00;67.20
53962;DHT22;39868;53.398;6.564;2023-05-07T14:50:34;25.10;66.90
53962;DHT22;39868;53.398;6.564;2023-05-07T14:53:09;25.10;67.40
53962;DHT22;39868;53.398;6.564;2023-05-07T14:55:47;25.20;67.30
53962;DHT22;39868;53.398;6.564;2023-05-07T14:58:19;25.30;67.60
53962;DHT22;39868;53.398;6.564;2023-05-07T15:00:54;25.30;67.40
53962;DHT22;39868;53.398;6.564;2023-05-07T15:03:24;25.30;66.50
53962;DHT22;39868;53.398;6.564;2023-05-07T15:05:54;25.30;66.90
53962;DHT22;39868;53.398;6.564;2023-05-07T15:08:26;25.40;66.60
53962;DHT22;39868;53.398;6.564;2023-05-07T15:10:57;25.40;66.90
53962;DHT22;39868;53.398;6.564;2023-05-07T15:13:42;25.50;66.60
53962;DHT22;39868;53.398;6.564;2023-05-07T15:16:10;25.50;66.80
53962;DHT22;39868;53.398;6.564;2023-05-07T15:18:40;25.60;68.60
53962;DHT22;39868;53.398;6.564;2023-05-07T15:21:11;25.60;66.60
53962;DHT22;39868;53.398;6.564;2023-05-07T15:23:41;25.50;65.90
53962;DHT22;39868;53.398;6.564;2023-05-07T15:26:14;25.50;66.40
53962;DHT22;39868;53.398;6.564;2023-05-07T15:28:45;25.40;65.40
53962;DHT22;39868;53.398;6.564;2023-05-07T15:31:16;25.30;64.90
53962;DHT22;39868;53.398;6.564;2023-05-07T15:33:46;25.20;65.10
53962;DHT22;39868;53.398;6.564;2023-05-07T15:36:15;25.10;65.00
53962;DHT22;39868;53.398;6.564;2023-05-07T15:38:43;24.90;64.90
53962;DHT22;39868;53.398;6.564;2023-05-07T15:41:10;24.80;64.60
53962;DHT22;39868;53.398;6.564;2023-05-07T15:43:46;24.70;65.10
53962;DHT22;39868;53.398;6.564;2023-05-07T15:46:18;24.50;65.00
53962;DHT22;39868;53.398;6.564;2023-05-07T15:48:46;24.40;64.70
53962;DHT22;39868;53.398;6.564;2023-05-07T15:51:13;24.20;65.10
53962;DHT22;39868;53.398;6.564;2023-05-07T15:53:40;24.10;64.90
53962;DHT22;39868;53.398;6.564;2023-05-07T15:56:07;24.00;65.00
53962;DHT22;39868;53.398;6.564;2023-05-07T15:58:35;23.90;65.00
53962;DHT22;39868;53.398;6.564;2023-05-07T16:01:03;23.90;65.30